sensor_id;sensor_type;location;lat;lon;timestamp;pressure;altitude;pressure_sealevel;temperature;humidity
19811;BME280;10065;49.632;8.346;2023-01-29T00:02:04;101947.63;;;4.64;50.90
19811;BME280;10065;49.632;8.346;2023-01-29T00:04:32;101940.88;;;4.59;50.74
19811;BME280;10065;49.632;8.346;2023-01-29T00:07:01;101936.38;;;4.61;50.91
19811;BME280;10065;49.632;8.346;2023-01-29T00:09:29;101938.94;;;4.62;51.05
19811;BME280;10065;49.632;8.346;2023-01-29T00:11:57;101937.25;;;4.61;51.06
19811;BME280;10065;49.632;8.346;2023-01-29T00:14:25;101933.84;;;4.59;50.36
19811;BME280;10065;49.632;8.346;2023-01-29T00:16:53;101933.56;;;4.65;50.60
19811;BME280;10065;49.632;8.346;2023-01-29T00:19:21;101934.47;;;4.64;50.44
19811;BME280;10065;49.632;8.346;2023-01-29T00:21:49;101932.47;;;4.69;50.55
19811;BME280;10065;49.632;8.346;2023-01-29T00:24:18;101931.84;;;4.64;50.80
19811;BME280;10065;49.632;8.346;2023-01-29T00:26:46;101933.69;;;4.62;50.83
19811;BME280;10065;49.632;8.346;2023-01-29T00:29:15;101934.63;;;4.61;50.95
19811;BME280;10065;49.632;8.346;2023-01-29T00:31:44;101935.47;;;4.62;51.54
19811;BME280;10065;49.632;8.346;2023-01-29T00:34:12;101938.03;;;4.63;51.14
19811;BME280;10065;49.632;8.346;2023-01-29T00:36:40;101937.31;;;4.60;51.61
19811;BME280;10065;49.632;8.346;2023-01-29T00:39:09;101939.88;;;4.61;51.58
19811;BME280;10065;49.632;8.346;2023-01-29T00:41:38;101949.47;;;4.62;51.40
19811;BME280;10065;49.632;8.346;2023-01-29T00:44:24;101949.31;;;4.65;51.10
19811;BME280;10065;49.632;8.346;2023-01-29T00:47:09;101955.34;;;4.67;51.05
19811;BME280;10065;49.632;8.346;2023-01-29T00:49:56;101955.06;;;4.73;51.05
19811;BME280;10065;49.632;8.346;2023-01-29T00:52:24;101957.81;;;4.70;51.12
19811;BME280;10065;49.632;8.346;2023-01-29T00:54:52;101957.88;;;4.69;51.10
19811;BME280;10065;49.632;8.346;2023-01-29T00:57:23;101959.84;;;4.65;51.14
19811;BME280;10065;49.632;8.346;2023-01-29T00:59:51;101962.38;;;4.67;50.94
19811;BME280;10065;49.632;8.346;2023-01-29T01:02:19;101963.22;;;4.67;51.14
19811;BME280;10065;49.632;8.346;2023-01-29T01:05:06;101959.06;;;4.63;50.91
19811;BME280;10065;49.632;8.346;2023-01-29T01:07:35;101962.19;;;4.52;50.95
19811;BME280;10065;49.632;8.346;2023-01-29T01:10:03;101953.16;;;4.58;50.93
19811;BME280;10065;49.632;8.346;2023-01-29T01:12:53;101958.56;;;4.55;50.38
19811;BME280;10065;49.632;8.346;2023-01-29T01:15:23;101952.53;;;4.53;50.57
19811;BME280;10065;49.632;8.346;2023-01-29T01:17:52;101955.28;;;4.50;50.81
19811;BME280;10065;49.632;8.346;2023-01-29T01:20:20;101956.56;;;4.60;50.66
19811;BME280;10065;49.632;8.346;2023-01-29T01:22:48;101952.88;;;4.64;50.23
19811;BME280;10065;49.632;8.346;2023-01-29T01:25:16;101950.03;;;4.50;50.44
19811;BME280;10065;49.632;8.346;2023-01-29T01:27:44;101946.38;;;4.35;50.88
19811;BME280;10065;49.632;8.346;2023-01-29T01:30:15;101952.06;;;4.26;51.06
19811;BME280;10065;49.632;8.346;2023-01-29T01:32:43;101943.63;;;4.20;51.15
19811;BME280;10065;49.632;8.346;2023-01-29T01:35:11;101945.47;;;4.18;51.27
19811;BME280;10065;49.632;8.346;2023-01-29T01:37:40;101941.06;;;4.18;51.36
19811;BME280;10065;49.632;8.346;2023-01-29T01:40:12;101945.25;;;4.03;51.03
19811;BME280;10065;49.632;8.346;2023-01-29T01:42:46;101951.38;;;4.04;51.74
19811;BME280;10065;49.632;8.346;2023-01-29T01:45:20;101943.13;;;4.11;51.90
19811;BME280;10065;49.632;8.346;2023-01-29T01:47:50;101938.38;;;4.20;51.76
19811;BME280;10065;49.632;8.346;2023-01-29T01:50:22;101939.00;;;4.25;51.40
19811;BME280;10065;49.632;8.346;2023-01-29T01:52:52;101935.09;;;4.33;50.87
19811;BME280;10065;49.632;8.346;2023-01-29T01:55:25;101936.00;;;4.32;50.59
19811;BME280;10065;49.632;8.346;2023-01-29T01:57:56;101928.91;;;4.34;50.87
19811;BME280;10065;49.632;8.346;2023-01-29T02:00:27;101928.06;;;4.34;50.81
19811;BME280;10065;49.632;8.346;2023-01-29T02:02:55;101928.00;;;4.35;50.88
19811;BME280;10065;49.632;8.346;2023-01-29T02:05:41;101927.91;;;4.37;50.68
19811;BME280;10065;49.632;8.346;2023-01-29T02:08:30;101912.31;;;4.34;50.61
19811;BME280;10065;49.632;8.346;2023-01-29T02:11:16;101924.38;;;4.38;50.44
19811;BME280;10065;49.632;8.346;2023-01-29T02:13:44;101916.31;;;4.41;50.47
19811;BME280;10065;49.632;8.346;2023-01-29T02:16:14;101920.03;;;4.37;50.51
19811;BME280;10065;49.632;8.346;2023-01-29T02:18:41;101911.31;;;4.36;50.35
19811;BME280;10065;49.632;8.346;2023-01-29T02:21:19;101904.59;;;4.31;50.57
19811;BME280;10065;49.632;8.346;2023-01-29T02:24:10;101905.06;;;4.39;50.40
19811;BME280;10065;49.632;8.346;2023-01-29T02:27:02;101905.19;;;4.36;50.75
19811;BME280;10065;49.632;8.346;2023-01-29T02:29:40;101905.91;;;4.39;51.00
19811;BME280;10065;49.632;8.346;2023-01-29T02:32:17;101897.09;;;4.40;51.15
19811;BME280;10065;49.632;8.346;2023-01-29T02:34:53;101898.97;;;4.38;50.70
19811;BME280;10065;49.632;8.346;2023-01-29T02:37:49;101900.31;;;4.28;50.84
19811;BME280;10065;49.632;8.346;2023-01-29T02:40:25;101891.72;;;4.25;51.25
19811;BME280;10065;49.632;8.346;2023-01-29T02:43:00;101897.69;;;4.28;50.85
19811;BME280;10065;49.632;8.346;2023-01-29T02:45:34;101902.28;;;4.23;50.65
19811;BME280;10065;49.632;8.346;2023-01-29T02:48:05;101889.09;;;4.25;50.74
19811;BME280;10065;49.632;8.346;2023-01-29T02:50:36;101889.59;;;4.14;50.86
19811;BME280;10065;49.632;8.346;2023-01-29T02:53:11;101884.53;;;4.11;51.00
19811;BME280;10065;49.632;8.346;2023-01-29T02:55:44;101893.44;;;4.26;50.91
19811;BME280;10065;49.632;8.346;2023-01-29T02:58:18;101884.88;;;4.22;50.73
19811;BME280;10065;49.632;8.346;2023-01-29T03:00:50;101886.06;;;4.15;50.83
19811;BME280;10065;49.632;8.346;2023-01-29T03:03:22;101900.81;;;4.18;51.23
19811;BME280;10065;49.632;8.346;2023-01-29T03:05:57;101896.56;;;4.15;51.05
19811;BME280;10065;49.632;8.346;2023-01-29T03:08:30;101907.38;;;4.09;51.37
19811;BME280;10065;49.632;8.346;2023-01-29T03:11:09;101921.91;;;4.16;51.37
19811;BME280;10065;49.632;8.346;2023-01-29T03:13:44;101928.50;;;4.25;50.99
19811;BME280;10065;49.632;8.346;2023-01-29T03:16:20;101923.31;;;4.23;50.58
19811;BME280;10065;49.632;8.346;2023-01-29T03:18:53;101926.09;;;4.20;50.79
19811;BME280;10065;49.632;8.346;2023-01-29T03:21:26;101927.09;;;4.18;50.45
19811;BME280;10065;49.632;8.346;2023-01-29T03:24:15;101929.56;;;4.21;50.34
19811;BME280;10065;49.632;8.346;2023-01-29T03:27:06;101932.63;;;4.30;50.16
19811;BME280;10065;49.632;8.346;2023-01-29T03:29:53;101916.44;;;4.21;50.69
19811;BME280;10065;49.632;8.346;2023-01-29T03:32:42;101919.22;;;4.18;51.00
19811;BME280;10065;49.632;8.346;2023-01-29T03:35:13;101914.88;;;4.16;51.22
19811;BME280;10065;49.632;8.346;2023-01-29T03:37:47;101912.31;;;4.15;51.26
19811;BME280;10065;49.632;8.346;2023-01-29T03:40:15;101907.06;;;4.15;51.50
19811;BME280;10065;49.632;8.346;2023-01-29T03:42:52;101914.19;;;4.13;51.68
19811;BME280;10065;49.632;8.346;2023-01-29T03:45:30;101918.34;;;4.17;51.77
19811;BME280;10065;49.632;8.346;2023-01-29T03:48:05;101928.84;;;4.17;51.80
19811;BME280;10065;49.632;8.346;2023-01-29T03:50:38;101939.34;;;4.17;51.59
19811;BME280;10065;49.632;8.346;2023-01-29T03:53:15;101933.91;;;4.22;51.30
19811;BME280;10065;49.632;8.346;2023-01-29T03:55:50;101952.19;;;4.23;51.48
19811;BME280;10065;49.632;8.346;2023-01-29T03:58:23;101951.34;;;4.23;51.41
19811;BME280;10065;49.632;8.346;2023-01-29T04:00:57;101953.34;;;4.18;51.42
19811;BME280;10065;49.632;8.346;2023-01-29T04:03:33;101960.28;;;4.19;51.16
19811;BME280;10065;49.632;8.346;2023-01-29T04:06:07;101948.94;;;4.18;51.17
19811;BME280;10065;49.632;8.346;2023-01-29T04:08:42;101935.03;;;4.16;51.06
19811;BME280;10065;49.632;8.346;2023-01-29T04:11:15;101923.84;;;4.12;51.44
19811;BME280;10065;49.632;8.346;2023-01-29T04:13:45;101935.09;;;4.14;51.14
19811;BME280;10065;49.632;8.346;2023-01-29T04:16:15;101916.94;;;4.10;51.22
19811;BME280;10065;49.632;8.346;2023-01-29T04:18:46;101919.28;;;4.16;51.36
19811;BME280;10065;49.632;8.346;2023-01-29T04:21:15;101922.13;;;4.11;51.31
19811;BME280;10065;49.632;8.346;2023-01-29T04:23:43;101918.66;;;4.11;51.14
19811;BME280;10065;49.632;8.346;2023-01-29T04:26:32;101923.41;;;4.03;51.49
19811;BME280;10065;49.632;8.346;2023-01-29T04:29:13;101924.25;;;4.03;51.73
19811;BME280;10065;49.632;8.346;2023-01-29T04:31:50;101931.06;;;4.07;51.30
19811;BME280;10065;49.632;8.346;2023-01-29T04:34:24;101924.53;;;3.97;51.67
19811;BME280;10065;49.632;8.346;2023-01-29T04:37:04;101917.56;;;3.96;51.36
19811;BME280;10065;49.632;8.346;2023-01-29T04:39:42;101908.78;;;3.97;51.26
19811;BME280;10065;49.632;8.346;2023-01-29T04:42:14;101899.84;;;4.01;51.30
19811;BME280;10065;49.632;8.346;2023-01-29T04:44:51;101882.16;;;4.05;50.98
19811;BME280;10065;49.632;8.346;2023-01-29T04:47:26;101887.50;;;4.03;50.90
19811;BME280;10065;49.632;8.346;2023-01-29T04:50:06;101890.41;;;3.97;50.90
19811;BME280;10065;49.632;8.346;2023-01-29T04:52:45;101903.81;;;3.91;51.29
19811;BME280;10065;49.632;8.346;2023-01-29T04:55:19;101895.09;;;3.91;51.25
19811;BME280;10065;49.632;8.346;2023-01-29T04:57:51;101882.03;;;3.89;51.24
19811;BME280;10065;49.632;8.346;2023-01-29T05:00:24;101874.31;;;3.86;51.38
19811;BME280;10065;49.632;8.346;2023-01-29T05:02:55;101881.06;;;3.92;51.21
19811;BME280;10065;49.632;8.346;2023-01-29T05:05:25;101883.66;;;3.92;51.33
19811;BME280;10065;49.632;8.346;2023-01-29T05:07:56;101895.31;;;3.86;51.29
19811;BME280;10065;49.632;8.346;2023-01-29T05:10:25;101901.47;;;3.85;51.42
19811;BME280;10065;49.632;8.346;2023-01-29T05:12:57;101901.31;;;3.88;51.26
19811;BME280;10065;49.632;8.346;2023-01-29T05:15:30;101904.66;;;3.92;51.50
19811;BME280;10065;49.632;8.346;2023-01-29T05:17:59;101912.53;;;3.92;51.56
19811;BME280;10065;49.632;8.346;2023-01-29T05:20:32;101916.03;;;3.92;51.41
19811;BME280;10065;49.632;8.346;2023-01-29T05:23:00;101926.53;;;3.92;51.73
19811;BME280;10065;49.632;8.346;2023-01-29T05:25:30;101926.53;;;3.92;51.88
19811;BME280;10065;49.632;8.346;2023-01-29T05:27:59;101920.34;;;3.93;51.82
19811;BME280;10065;49.632;8.346;2023-01-29T05:30:34;101928.22;;;3.93;51.98
19811;BME280;10065;49.632;8.346;2023-01-29T05:33:04;101923.97;;;3.91;52.00
19811;BME280;10065;49.632;8.346;2023-01-29T05:35:33;101922.00;;;3.96;51.83
19811;BME280;10065;49.632;8.346;2023-01-29T05:38:01;101913.16;;;3.97;51.99
19811;BME280;10065;49.632;8.346;2023-01-29T05:40:28;101915.78;;;3.97;51.89
19811;BME280;10065;49.632;8.346;2023-01-29T05:42:56;101917.72;;;3.93;52.11
19811;BME280;10065;49.632;8.346;2023-01-29T05:45:24;101912.47;;;3.93;52.12
19811;BME280;10065;49.632;8.346;2023-01-29T05:47:54;101902.03;;;3.92;52.38
19811;BME280;10065;49.632;8.346;2023-01-29T05:50:22;101901.25;;;3.90;52.05
19811;BME280;10065;49.632;8.346;2023-01-29T05:52:56;101888.50;;;3.82;52.00
19811;BME280;10065;49.632;8.346;2023-01-29T05:55:24;101897.28;;;3.81;52.51
19811;BME280;10065;49.632;8.346;2023-01-29T05:57:52;101899.13;;;3.79;52.84
19811;BME280;10065;49.632;8.346;2023-01-29T06:00:20;101902.59;;;3.79;52.54
19811;BME280;10065;49.632;8.346;2023-01-29T06:02:48;101900.13;;;3.76;52.10
19811;BME280;10065;49.632;8.346;2023-01-29T06:05:16;101914.09;;;3.77;51.45
19811;BME280;10065;49.632;8.346;2023-01-29T06:07:44;101912.41;;;3.76;52.11
19811;BME280;10065;49.632;8.346;2023-01-29T06:10:15;101911.47;;;3.77;52.56
19811;BME280;10065;49.632;8.346;2023-01-29T06:12:44;101903.59;;;3.77;52.53
19811;BME280;10065;49.632;8.346;2023-01-29T06:15:12;101907.59;;;3.86;52.45
19811;BME280;10065;49.632;8.346;2023-01-29T06:17:41;101900.56;;;3.86;52.11
19811;BME280;10065;49.632;8.346;2023-01-29T06:20:10;101904.97;;;3.86;51.62
19811;BME280;10065;49.632;8.346;2023-01-29T06:22:38;101905.94;;;3.83;51.71
19811;BME280;10065;49.632;8.346;2023-01-29T06:25:06;101907.50;;;3.87;51.43
19811;BME280;10065;49.632;8.346;2023-01-29T06:27:36;101905.81;;;3.86;51.33
19811;BME280;10065;49.632;8.346;2023-01-29T06:30:05;101911.19;;;3.83;51.66
19811;BME280;10065;49.632;8.346;2023-01-29T06:32:33;101902.53;;;3.81;52.07
19811;BME280;10065;49.632;8.346;2023-01-29T06:35:01;101906.22;;;3.77;52.49
19811;BME280;10065;49.632;8.346;2023-01-29T06:37:29;101904.31;;;3.81;52.41
19811;BME280;10065;49.632;8.346;2023-01-29T06:39:56;101893.13;;;3.77;52.62
19811;BME280;10065;49.632;8.346;2023-01-29T06:42:24;101893.13;;;3.77;52.56
19811;BME280;10065;49.632;8.346;2023-01-29T06:44:55;101901.00;;;3.77;52.48
19811;BME280;10065;49.632;8.346;2023-01-29T06:47:23;101893.97;;;3.77;52.65
19811;BME280;10065;49.632;8.346;2023-01-29T06:49:51;101899.41;;;3.73;52.97
19811;BME280;10065;49.632;8.346;2023-01-29T06:52:19;101904.72;;;3.71;52.69
19811;BME280;10065;49.632;8.346;2023-01-29T06:54:46;101906.44;;;3.72;52.56
19811;BME280;10065;49.632;8.346;2023-01-29T06:57:14;101913.31;;;3.75;52.42
19811;BME280;10065;49.632;8.346;2023-01-29T06:59:42;101901.84;;;3.77;52.82
19811;BME280;10065;49.632;8.346;2023-01-29T07:02:13;101913.31;;;3.75;52.87
19811;BME280;10065;49.632;8.346;2023-01-29T07:04:41;101907.34;;;3.71;53.27
19811;BME280;10065;49.632;8.346;2023-01-29T07:07:09;101898.50;;;3.74;52.50
19811;BME280;10065;49.632;8.346;2023-01-29T07:09:39;101899.28;;;3.76;51.84
19811;BME280;10065;49.632;8.346;2023-01-29T07:12:07;101904.25;;;3.82;51.54
19811;BME280;10065;49.632;8.346;2023-01-29T07:14:35;101909.34;;;3.85;51.30
19811;BME280;10065;49.632;8.346;2023-01-29T07:17:03;101909.78;;;3.76;51.76
19811;BME280;10065;49.632;8.346;2023-01-29T07:19:32;101911.38;;;3.78;51.79
19811;BME280;10065;49.632;8.346;2023-01-29T07:22:00;101914.59;;;3.85;52.10
19811;BME280;10065;49.632;8.346;2023-01-29T07:24:29;101907.50;;;3.87;51.86
19811;BME280;10065;49.632;8.346;2023-01-29T07:26:57;101902.53;;;3.81;51.62
19811;BME280;10065;49.632;8.346;2023-01-29T07:29:25;101913.72;;;3.66;52.31
19811;BME280;10065;49.632;8.346;2023-01-29T07:31:52;101914.22;;;3.74;52.50
19811;BME280;10065;49.632;8.346;2023-01-29T07:34:20;101917.16;;;3.68;52.49
19811;BME280;10065;49.632;8.346;2023-01-29T07:36:52;101930.91;;;3.73;52.27
19811;BME280;10065;49.632;8.346;2023-01-29T07:39:19;101925.78;;;3.70;51.92
19811;BME280;10065;49.632;8.346;2023-01-29T07:41:47;101936.00;;;3.76;52.40
19811;BME280;10065;49.632;8.346;2023-01-29T07:44:15;101935.28;;;3.72;52.46
19811;BME280;10065;49.632;8.346;2023-01-29T07:46:43;101946.50;;;3.76;52.70
19811;BME280;10065;49.632;8.346;2023-01-29T07:49:11;101935.44;;;3.88;52.49
19811;BME280;10065;49.632;8.346;2023-01-29T07:51:38;101939.94;;;3.86;52.67
19811;BME280;10065;49.632;8.346;2023-01-29T07:54:07;101941.91;;;3.81;52.57
19811;BME280;10065;49.632;8.346;2023-01-29T07:56:36;101949.47;;;3.87;52.37
19811;BME280;10065;49.632;8.346;2023-01-29T07:59:03;101940.63;;;3.90;52.38
19811;BME280;10065;49.632;8.346;2023-01-29T08:01:31;101941.41;;;3.92;52.51
19811;BME280;10065;49.632;8.346;2023-01-29T08:03:59;101940.56;;;3.91;52.46
19811;BME280;10065;49.632;8.346;2023-01-29T08:06:26;101941.97;;;3.98;52.37
19811;BME280;10065;49.632;8.346;2023-01-29T08:08:54;101946.31;;;3.99;52.25
19811;BME280;10065;49.632;8.346;2023-01-29T08:11:24;101949.84;;;3.98;51.78
19811;BME280;10065;49.632;8.346;2023-01-29T08:13:52;101941.97;;;3.98;52.09
19811;BME280;10065;49.632;8.346;2023-01-29T08:16:19;101945.63;;;3.96;52.34
19811;BME280;10065;49.632;8.346;2023-01-29T08:18:47;101946.44;;;3.96;52.13
19811;BME280;10065;49.632;8.346;2023-01-29T08:21:15;101942.69;;;4.02;51.66
19811;BME280;10065;49.632;8.346;2023-01-29T08:23:43;101938.13;;;4.05;52.00
19811;BME280;10065;49.632;8.346;2023-01-29T08:26:10;101938.00;;;4.08;51.72
19811;BME280;10065;49.632;8.346;2023-01-29T08:28:40;101940.28;;;4.16;51.34
19811;BME280;10065;49.632;8.346;2023-01-29T08:31:12;101941.63;;;4.25;50.82
19811;BME280;10065;49.632;8.346;2023-01-29T08:33:40;101943.41;;;4.24;50.82
19811;BME280;10065;49.632;8.346;2023-01-29T08:36:09;101951.56;;;4.18;50.92
19811;BME280;10065;49.632;8.346;2023-01-29T08:38:37;101957.97;;;4.12;51.17
19811;BME280;10065;49.632;8.346;2023-01-29T08:41:05;101966.69;;;4.13;51.23
19811;BME280;10065;49.632;8.346;2023-01-29T08:43:33;101968.47;;;4.12;51.37
19811;BME280;10065;49.632;8.346;2023-01-29T08:46:04;101972.50;;;4.20;51.64
19811;BME280;10065;49.632;8.346;2023-01-29T08:48:32;101963.84;;;4.18;51.27
19811;BME280;10065;49.632;8.346;2023-01-29T08:51:00;101939.78;;;4.08;51.26
19811;BME280;10065;49.632;8.346;2023-01-29T08:53:29;101921.63;;;4.03;51.52
19811;BME280;10065;49.632;8.346;2023-01-29T08:55:57;101919.44;;;4.13;51.36
19811;BME280;10065;49.632;8.346;2023-01-29T08:58:25;101901.66;;;4.37;51.04
19811;BME280;10065;49.632;8.346;2023-01-29T09:00:53;101894.75;;;4.70;50.75
19811;BME280;10065;49.632;8.346;2023-01-29T09:03:23;101891.81;;;4.93;49.85
19811;BME280;10065;49.632;8.346;2023-01-29T09:05:50;101903.41;;;5.24;48.98
19811;BME280;10065;49.632;8.346;2023-01-29T09:08:18;101911.56;;;5.52;48.21
19811;BME280;10065;49.632;8.346;2023-01-29T09:10:46;101910.75;;;5.67;47.10
19811;BME280;10065;49.632;8.346;2023-01-29T09:13:13;101910.66;;;5.53;46.82
19811;BME280;10065;49.632;8.346;2023-01-29T09:15:41;101912.81;;;5.28;47.57
19811;BME280;10065;49.632;8.346;2023-01-29T09:18:09;101917.25;;;5.27;47.98
19811;BME280;10065;49.632;8.346;2023-01-29T09:20:38;101924.13;;;5.30;47.72
19811;BME280;10065;49.632;8.346;2023-01-29T09:23:07;101928.13;;;5.37;47.81
19811;BME280;10065;49.632;8.346;2023-01-29T09:25:36;101922.56;;;5.43;47.81
19811;BME280;10065;49.632;8.346;2023-01-29T09:28:04;101929.53;;;5.44;47.87
19811;BME280;10065;49.632;8.346;2023-01-29T09:30:32;101934.63;;;5.47;47.96
19811;BME280;10065;49.632;8.346;2023-01-29T09:33:03;101931.16;;;5.80;46.96
19811;BME280;10065;49.632;8.346;2023-01-29T09:35:31;101950.56;;;5.94;46.30
19811;BME280;10065;49.632;8.346;2023-01-29T09:38:01;101947.69;;;5.82;45.86
19811;BME280;10065;49.632;8.346;2023-01-29T09:40:32;101956.44;;;5.49;46.38
19811;BME280;10065;49.632;8.346;2023-01-29T09:43:06;101960.72;;;5.35;47.08
19811;BME280;10065;49.632;8.346;2023-01-29T09:45:39;101971.19;;;5.19;47.75
19811;BME280;10065;49.632;8.346;2023-01-29T09:48:09;101966.22;;;5.13;48.17
19811;BME280;10065;49.632;8.346;2023-01-29T09:50:40;101969.22;;;5.05;48.17
19811;BME280;10065;49.632;8.346;2023-01-29T09:53:16;101977.50;;;4.98;48.38
19811;BME280;10065;49.632;8.346;2023-01-29T09:55:48;101988.47;;;4.88;48.72
19811;BME280;10065;49.632;8.346;2023-01-29T09:58:20;101987.63;;;4.88;48.97
19811;BME280;10065;49.632;8.346;2023-01-29T10:00:57;101975.63;;;4.82;49.01
19811;BME280;10065;49.632;8.346;2023-01-29T10:03:47;101975.00;;;4.77;49.08
19811;BME280;10065;49.632;8.346;2023-01-29T10:06:24;101994.03;;;4.82;49.09
19811;BME280;10065;49.632;8.346;2023-01-29T10:12:02;101967.84;;;4.98;49.21
19811;BME280;10065;49.632;8.346;2023-01-29T10:14:38;101964.81;;;5.06;49.09
19811;BME280;10065;49.632;8.346;2023-01-29T10:17:25;101966.16;;;5.14;48.84
19811;BME280;10065;49.632;8.346;2023-01-29T10:20:02;101973.81;;;5.36;47.89
19811;BME280;10065;49.632;8.346;2023-01-29T10:22:44;101961.25;;;5.41;47.64
19811;BME280;10065;49.632;8.346;2023-01-29T10:25:18;101953.22;;;5.44;47.82
19811;BME280;10065;49.632;8.346;2023-01-29T10:27:49;101947.88;;;5.28;47.54
19811;BME280;10065;49.632;8.346;2023-01-29T10:30:30;101956.34;;;5.18;48.04
19811;BME280;10065;49.632;8.346;2023-01-29T10:33:01;101951.53;;;5.26;48.44
19811;BME280;10065;49.632;8.346;2023-01-29T10:35:32;101944.09;;;5.34;48.18
19811;BME280;10065;49.632;8.346;2023-01-29T10:38:14;101940.38;;;5.38;47.72
19811;BME280;10065;49.632;8.346;2023-01-29T10:40:55;101934.19;;;5.39;47.37
19811;BME280;10065;49.632;8.346;2023-01-29T10:43:29;101929.84;;;5.38;47.42
19811;BME280;10065;49.632;8.346;2023-01-29T10:46:04;101923.81;;;5.36;47.70
19811;BME280;10065;49.632;8.346;2023-01-29T10:48:45;101908.19;;;5.33;47.91
19811;BME280;10065;49.632;8.346;2023-01-29T10:51:24;101904.69;;;5.50;47.98
19811;BME280;10065;49.632;8.346;2023-01-29T10:54:04;101899.56;;;5.80;47.13
19811;BME280;10065;49.632;8.346;2023-01-29T10:56:45;101907.44;;;6.28;46.12
19811;BME280;10065;49.632;8.346;2023-01-29T10:59:31;101900.66;;;6.70;45.26
19811;BME280;10065;49.632;8.346;2023-01-29T11:02:12;101905.25;;;6.96;44.47
19811;BME280;10065;49.632;8.346;2023-01-29T11:04:43;101889.69;;;7.36;43.72
19811;BME280;10065;49.632;8.346;2023-01-29T11:07:12;101888.56;;;7.68;42.97
19811;BME280;10065;49.632;8.346;2023-01-29T11:09:45;101883.56;;;7.78;42.60
19811;BME280;10065;49.632;8.346;2023-01-29T11:12:20;101875.50;;;8.08;42.00
19811;BME280;10065;49.632;8.346;2023-01-29T11:14:54;101874.34;;;8.26;41.81
19811;BME280;10065;49.632;8.346;2023-01-29T11:17:24;101859.09;;;9.09;40.46
19811;BME280;10065;49.632;8.346;2023-01-29T11:19:53;101857.78;;;9.90;38.81
19811;BME280;10065;49.632;8.346;2023-01-29T11:22:23;101857.03;;;10.25;37.54
19811;BME280;10065;49.632;8.346;2023-01-29T11:25:14;101859.94;;;9.60;38.36
19811;BME280;10065;49.632;8.346;2023-01-29T11:27:46;101847.41;;;8.60;39.81
19811;BME280;10065;49.632;8.346;2023-01-29T11:30:18;101851.75;;;7.93;40.93
19811;BME280;10065;49.632;8.346;2023-01-29T11:32:50;101847.53;;;7.91;41.49
19811;BME280;10065;49.632;8.346;2023-01-29T11:35:21;101836.03;;;8.98;40.55
19811;BME280;10065;49.632;8.346;2023-01-29T11:37:49;101812.94;;;10.59;37.77
19811;BME280;10065;49.632;8.346;2023-01-29T11:40:43;101810.69;;;12.74;34.32
19811;BME280;10065;49.632;8.346;2023-01-29T11:43:27;101809.06;;;14.52;31.81
19811;BME280;10065;49.632;8.346;2023-01-29T11:45:58;101795.22;;;16.85;28.55
19811;BME280;10065;49.632;8.346;2023-01-29T11:48:33;101787.44;;;18.59;26.20
19811;BME280;10065;49.632;8.346;2023-01-29T11:51:02;101779.00;;;19.02;25.32
19811;BME280;10065;49.632;8.346;2023-01-29T11:53:37;101792.25;;;17.22;26.20
19811;BME280;10065;49.632;8.346;2023-01-29T11:56:17;101802.47;;;15.22;28.83
19811;BME280;10065;49.632;8.346;2023-01-29T11:58:48;101800.13;;;13.84;30.29
19811;BME280;10065;49.632;8.346;2023-01-29T12:01:29;101787.63;;;12.63;32.27
19811;BME280;10065;49.632;8.346;2023-01-29T12:03:57;101789.53;;;12.20;33.31
19811;BME280;10065;49.632;8.346;2023-01-29T12:06:31;101781.53;;;12.31;33.24
19811;BME280;10065;49.632;8.346;2023-01-29T12:09:02;101781.53;;;12.31;33.81
19811;BME280;10065;49.632;8.346;2023-01-29T12:11:36;101767.00;;;13.28;32.42
19811;BME280;10065;49.632;8.346;2023-01-29T12:14:22;101777.88;;;14.24;30.80
19811;BME280;10065;49.632;8.346;2023-01-29T12:16:53;101762.91;;;14.89;29.99
19811;BME280;10065;49.632;8.346;2023-01-29T12:19:27;101761.28;;;13.91;30.97
19811;BME280;10065;49.632;8.346;2023-01-29T12:22:02;101765.38;;;13.46;31.91
19811;BME280;10065;49.632;8.346;2023-01-29T12:24:34;101757.38;;;14.44;31.37
19811;BME280;10065;49.632;8.346;2023-01-29T12:27:06;101762.72;;;15.47;29.44
19811;BME280;10065;49.632;8.346;2023-01-29T12:29:44;101745.22;;;16.33;27.94
19811;BME280;10065;49.632;8.346;2023-01-29T12:32:24;101752.88;;;15.10;29.91
19811;BME280;10065;49.632;8.346;2023-01-29T12:34:57;101749.78;;;14.29;31.00
19811;BME280;10065;49.632;8.346;2023-01-29T12:37:35;101747.47;;;13.57;32.00
19811;BME280;10065;49.632;8.346;2023-01-29T12:40:11;101731.66;;;13.26;32.37
19811;BME280;10065;49.632;8.346;2023-01-29T12:42:40;101734.59;;;12.51;33.49
19811;BME280;10065;49.632;8.346;2023-01-29T12:45:16;101726.59;;;12.09;33.74
19811;BME280;10065;49.632;8.346;2023-01-29T12:47:47;101724.16;;;12.17;33.84
19811;BME280;10065;49.632;8.346;2023-01-29T12:50:19;101727.47;;;11.98;34.21
19811;BME280;10065;49.632;8.346;2023-01-29T12:52:50;101722.09;;;11.12;35.39
19811;BME280;10065;49.632;8.346;2023-01-29T12:55:21;101713.94;;;10.47;36.46
19811;BME280;10065;49.632;8.346;2023-01-29T12:57:53;101719.75;;;9.69;37.68
19811;BME280;10065;49.632;8.346;2023-01-29T13:00:26;101721.41;;;9.10;38.85
19811;BME280;10065;49.632;8.346;2023-01-29T13:03:00;101721.50;;;8.45;39.42
19811;BME280;10065;49.632;8.346;2023-01-29T13:05:37;101720.69;;;7.78;41.23
19811;BME280;10065;49.632;8.346;2023-01-29T13:08:12;101709.63;;;7.59;41.85
19811;BME280;10065;49.632;8.346;2023-01-29T13:10:43;101699.13;;;7.45;41.91
19811;BME280;10065;49.632;8.346;2023-01-29T13:13:14;101699.72;;;7.22;42.42
19811;BME280;10065;49.632;8.346;2023-01-29T13:15:50;101703.69;;;6.86;43.53
19811;BME280;10065;49.632;8.346;2023-01-29T13:18:36;101682.97;;;6.80;43.78
19811;BME280;10065;49.632;8.346;2023-01-29T13:21:14;101685.53;;;6.82;44.02
19811;BME280;10065;49.632;8.346;2023-01-29T13:23:44;101690.81;;;6.82;43.93
19811;BME280;10065;49.632;8.346;2023-01-29T13:26:17;101691.34;;;6.87;44.46
19811;BME280;10065;49.632;8.346;2023-01-29T13:28:46;101692.75;;;7.06;44.46
19811;BME280;10065;49.632;8.346;2023-01-29T13:31:24;101690.22;;;7.19;43.74